sensor_id;sensor_type;location;lat;lon;timestamp;P1;durP1;ratioP1;P2;durP2;ratioP2
67528;SDS011;54366;51.980;5.856;2023-04-06T00:01:55;8.05;;;6.65;;
67528;SDS011;54366;51.980;5.856;2023-04-06T00:04:28;9.07;;;6.75;;
67528;SDS011;54366;51.980;5.856;2023-04-06T00:06:54;7.97;;;7.00;;
67528;SDS011;54366;51.980;5.856;2023-04-06T00:09:28;8.35;;;7.20;;
67528;SDS011;54366;51.980;5.856;2023-04-06T00:12:08;10.05;;;7.75;;
67528;SDS011;54366;51.980;5.856;2023-04-06T00:14:41;8.63;;;6.75;;
67528;SDS011;54366;51.980;5.856;2023-04-06T00:17:14;10.13;;;7.57;;
67528;SDS011;54366;51.980;5.856;2023-04-06T00:19:41;9.40;;;7.28;;
67528;SDS011;54366;51.980;5.856;2023-04-06T00:22:13;10.15;;;7.65;;
67528;SDS011;54366;51.980;5.856;2023-04-06T00:24:46;9.85;;;7.78;;
67528;SDS011;54366;51.980;5.856;2023-04-06T00:27:13;8.82;;;7.57;;
67528;SDS011;54366;51.980;5.856;2023-04-06T00:29:45;9.50;;;7.28;;
67528;SDS011;54366;51.980;5.856;2023-04-06T00:32:18;8.10;;;6.93;;
67528;SDS011;54366;51.980;5.856;2023-04-06T00:34:51;9.57;;;7.40;;
67528;SDS011;54366;51.980;5.856;2023-04-06T00:37:24;8.38;;;6.60;;
67528;SDS011;54366;51.980;5.856;2023-04-06T00:39:57;9.18;;;7.50;;
67528;SDS011;54366;51.980;5.856;2023-04-06T00:42:30;10.48;;;7.82;;
67528;SDS011;54366;51.980;5.856;2023-04-06T00:44:57;10.68;;;7.85;;
67528;SDS011;54366;51.980;5.856;2023-04-06T00:47:31;10.82;;;8.40;;
67528;SDS011;54366;51.980;5.856;2023-04-06T00:50:05;8.98;;;7.65;;
67528;SDS011;54366;51.980;5.856;2023-04-06T00:52:39;8.55;;;7.40;;
67528;SDS011;54366;51.980;5.856;2023-04-06T00:55:12;9.32;;;7.68;;
67528;SDS011;54366;51.980;5.856;2023-04-06T01:00:19;9.57;;;8.20;;
67528;SDS011;54366;51.980;5.856;2023-04-06T01:02:57;9.07;;;7.60;;
67528;SDS011;54366;51.980;5.856;2023-04-06T01:05:37;8.88;;;7.50;;
67528;SDS011;54366;51.980;5.856;2023-04-06T01:08:26;9.50;;;7.55;;
67528;SDS011;54366;51.980;5.856;2023-04-06T01:11:12;9.65;;;8.13;;
67528;SDS011;54366;51.980;5.856;2023-04-06T01:13:52;9.50;;;8.02;;
67528;SDS011;54366;51.980;5.856;2023-04-06T01:16:30;9.07;;;7.70;;
67528;SDS011;54366;51.980;5.856;2023-04-06T01:19:08;9.05;;;7.63;;
67528;SDS011;54366;51.980;5.856;2023-04-06T01:21:49;8.20;;;6.85;;
67528;SDS011;54366;51.980;5.856;2023-04-06T01:24:43;9.02;;;8.13;;
67528;SDS011;54366;51.980;5.856;2023-04-06T01:27:21;8.73;;;6.95;;
67528;SDS011;54366;51.980;5.856;2023-04-06T01:30:11;8.60;;;7.57;;
67528;SDS011;54366;51.980;5.856;2023-04-06T01:32:51;9.75;;;8.00;;
67528;SDS011;54366;51.980;5.856;2023-04-06T01:38:29;10.25;;;7.82;;
67528;SDS011;54366;51.980;5.856;2023-04-06T01:41:03;9.45;;;7.47;;
67528;SDS011;54366;51.980;5.856;2023-04-06T01:43:47;9.15;;;7.22;;
67528;SDS011;54366;51.980;5.856;2023-04-06T01:46:25;9.93;;;7.72;;
67528;SDS011;54366;51.980;5.856;2023-04-06T01:51:38;11.80;;;8.85;;
67528;SDS011;54366;51.980;5.856;2023-04-06T01:54:12;10.15;;;8.35;;
67528;SDS011;54366;51.980;5.856;2023-04-06T01:56:54;10.15;;;7.85;;
67528;SDS011;54366;51.980;5.856;2023-04-06T01:59:36;10.57;;;8.95;;
67528;SDS011;54366;51.980;5.856;2023-04-06T02:02:19;9.57;;;8.00;;
67528;SDS011;54366;51.980;5.856;2023-04-06T02:04:58;9.38;;;8.25;;
67528;SDS011;54366;51.980;5.856;2023-04-06T02:07:38;9.88;;;7.97;;
67528;SDS011;54366;51.980;5.856;2023-04-06T02:10:23;10.57;;;8.80;;
67528;SDS011;54366;51.980;5.856;2023-04-06T02:12:59;8.75;;;7.28;;
67528;SDS011;54366;51.980;5.856;2023-04-06T02:15:27;10.75;;;8.60;;
67528;SDS011;54366;51.980;5.856;2023-04-06T02:18:00;9.85;;;7.72;;
67528;SDS011;54366;51.980;5.856;2023-04-06T02:20:33;9.52;;;7.90;;
67528;SDS011;54366;51.980;5.856;2023-04-06T02:23:06;8.30;;;7.50;;
67528;SDS011;54366;51.980;5.856;2023-04-06T02:25:39;9.70;;;8.70;;
67528;SDS011;54366;51.980;5.856;2023-04-06T02:28:06;9.88;;;8.48;;
67528;SDS011;54366;51.980;5.856;2023-04-06T02:30:39;9.75;;;8.55;;
67528;SDS011;54366;51.980;5.856;2023-04-06T02:33:13;9.90;;;8.02;;
67528;SDS011;54366;51.980;5.856;2023-04-06T02:35:44;11.25;;;8.82;;
67528;SDS011;54366;51.980;5.856;2023-04-06T02:38:17;9.90;;;7.78;;
67528;SDS011;54366;51.980;5.856;2023-04-06T02:40:51;10.52;;;8.15;;
67528;SDS011;54366;51.980;5.856;2023-04-06T02:43:23;10.38;;;8.48;;
67528;SDS011;54366;51.980;5.856;2023-04-06T02:46:20;10.98;;;8.98;;
67528;SDS011;54366;51.980;5.856;2023-04-06T02:48:53;10.55;;;8.70;;
67528;SDS011;54366;51.980;5.856;2023-04-06T02:51:29;9.77;;;8.40;;
67528;SDS011;54366;51.980;5.856;2023-04-06T02:54:19;10.43;;;8.68;;
67528;SDS011;54366;51.980;5.856;2023-04-06T02:56:52;10.43;;;8.25;;
67528;SDS011;54366;51.980;5.856;2023-04-06T02:59:19;10.50;;;8.38;;
67528;SDS011;54366;51.980;5.856;2023-04-06T03:02:08;10.38;;;8.57;;
67528;SDS011;54366;51.980;5.856;2023-04-06T03:07:19;9.65;;;7.97;;
67528;SDS011;54366;51.980;5.856;2023-04-06T03:09:59;9.90;;;8.90;;
67528;SDS011;54366;51.980;5.856;2023-04-06T03:12:32;9.65;;;8.45;;
67528;SDS011;54366;51.980;5.856;2023-04-06T03:15:11;10.00;;;8.35;;
67528;SDS011;54366;51.980;5.856;2023-04-06T03:17:50;10.43;;;8.55;;
67528;SDS011;54366;51.980;5.856;2023-04-06T03:20:36;10.35;;;8.63;;
67528;SDS011;54366;51.980;5.856;2023-04-06T03:23:10;10.20;;;8.30;;
67528;SDS011;54366;51.980;5.856;2023-04-06T03:25:44;9.73;;;7.85;;
67528;SDS011;54366;51.980;5.856;2023-04-06T03:28:14;10.93;;;8.63;;
67528;SDS011;54366;51.980;5.856;2023-04-06T03:30:55;10.77;;;8.80;;
67528;SDS011;54366;51.980;5.856;2023-04-06T03:33:49;11.18;;;9.07;;
67528;SDS011;54366;51.980;5.856;2023-04-06T03:36:29;10.98;;;9.32;;
67528;SDS011;54366;51.980;5.856;2023-04-06T03:39:03;9.27;;;8.27;;
67528;SDS011;54366;51.980;5.856;2023-04-06T03:41:40;9.75;;;8.57;;
67528;SDS011;54366;51.980;5.856;2023-04-06T03:44:30;11.52;;;8.18;;
67528;SDS011;54366;51.980;5.856;2023-04-06T03:47:05;9.50;;;7.88;;
67528;SDS011;54366;51.980;5.856;2023-04-06T03:49:38;10.05;;;8.35;;
67528;SDS011;54366;51.980;5.856;2023-04-06T03:54:45;10.90;;;8.90;;
67528;SDS011;54366;51.980;5.856;2023-04-06T03:57:12;10.02;;;7.97;;
67528;SDS011;54366;51.980;5.856;2023-04-06T03:59:44;9.85;;;7.95;;
67528;SDS011;54366;51.980;5.856;2023-04-06T04:02:17;9.30;;;7.32;;
67528;SDS011;54366;51.980;5.856;2023-04-06T04:04:44;8.38;;;7.30;;
67528;SDS011;54366;51.980;5.856;2023-04-06T04:07:17;9.77;;;7.63;;
67528;SDS011;54366;51.980;5.856;2023-04-06T04:09:43;8.60;;;7.70;;
67528;SDS011;54366;51.980;5.856;2023-04-06T04:12:23;10.50;;;8.25;;
67528;SDS011;54366;51.980;5.856;2023-04-06T04:14:57;10.80;;;8.85;;
67528;SDS011;54366;51.980;5.856;2023-04-06T04:17:30;11.65;;;8.10;;
67528;SDS011;54366;51.980;5.856;2023-04-06T04:19:57;10.90;;;9.20;;
67528;SDS011;54366;51.980;5.856;2023-04-06T04:22:29;9.60;;;7.90;;
67528;SDS011;54366;51.980;5.856;2023-04-06T04:25:02;9.25;;;7.63;;
67528;SDS011;54366;51.980;5.856;2023-04-06T04:27:31;10.63;;;8.27;;
67528;SDS011;54366;51.980;5.856;2023-04-06T04:30:05;11.60;;;8.90;;
67528;SDS011;54366;51.980;5.856;2023-04-06T04:32:32;9.80;;;8.13;;
67528;SDS011;54366;51.980;5.856;2023-04-06T04:35:07;10.65;;;8.30;;
67528;SDS011;54366;51.980;5.856;2023-04-06T04:37:42;12.52;;;8.63;;
67528;SDS011;54366;51.980;5.856;2023-04-06T04:40:15;11.18;;;8.45;;
67528;SDS011;54366;51.980;5.856;2023-04-06T04:42:53;10.63;;;8.98;;
67528;SDS011;54366;51.980;5.856;2023-04-06T04:45:32;12.15;;;8.93;;
67528;SDS011;54366;51.980;5.856;2023-04-06T04:48:15;11.50;;;9.07;;
67528;SDS011;54366;51.980;5.856;2023-04-06T04:50:59;9.98;;;8.57;;
67528;SDS011;54366;51.980;5.856;2023-04-06T04:53:58;12.35;;;9.45;;
67528;SDS011;54366;51.980;5.856;2023-04-06T04:56:32;11.50;;;9.07;;
67528;SDS011;54366;51.980;5.856;2023-04-06T04:59:09;10.13;;;8.13;;
67528;SDS011;54366;51.980;5.856;2023-04-06T05:01:49;12.85;;;9.30;;
67528;SDS011;54366;51.980;5.856;2023-04-06T05:04:30;13.40;;;9.15;;
67528;SDS011;54366;51.980;5.856;2023-04-06T05:07:08;13.10;;;9.52;;
67528;SDS011;54366;51.980;5.856;2023-04-06T05:09:48;11.38;;;9.57;;
67528;SDS011;54366;51.980;5.856;2023-04-06T05:12:34;11.57;;;9.32;;
67528;SDS011;54366;51.980;5.856;2023-04-06T05:15:10;10.48;;;8.75;;
67528;SDS011;54366;51.980;5.856;2023-04-06T05:17:43;14.15;;;10.02;;
67528;SDS011;54366;51.980;5.856;2023-04-06T05:20:21;10.93;;;9.77;;
67528;SDS011;54366;51.980;5.856;2023-04-06T05:22:55;13.20;;;10.18;;
67528;SDS011;54366;51.980;5.856;2023-04-06T05:25:21;12.15;;;10.02;;
67528;SDS011;54366;51.980;5.856;2023-04-06T05:28:00;11.25;;;9.23;;
67528;SDS011;54366;51.980;5.856;2023-04-06T05:30:36;12.32;;;9.73;;
67528;SDS011;54366;51.980;5.856;2023-04-06T05:33:03;12.55;;;9.98;;
67528;SDS011;54366;51.980;5.856;2023-04-06T05:35:50;11.80;;;10.15;;
67528;SDS011;54366;51.980;5.856;2023-04-06T05:38:24;12.83;;;9.63;;
67528;SDS011;54366;51.980;5.856;2023-04-06T05:41:01;14.27;;;10.80;;
67528;SDS011;54366;51.980;5.856;2023-04-06T05:43:34;13.00;;;10.45;;
67528;SDS011;54366;51.980;5.856;2023-04-06T05:46:06;14.73;;;10.90;;
67528;SDS011;54366;51.980;5.856;2023-04-06T05:48:39;13.40;;;10.73;;
67528;SDS011;54366;51.980;5.856;2023-04-06T05:51:10;14.88;;;11.32;;
67528;SDS011;54366;51.980;5.856;2023-04-06T05:53:48;15.32;;;11.52;;
67528;SDS011;54366;51.980;5.856;2023-04-06T05:56:22;14.13;;;11.00;;
67528;SDS011;54366;51.980;5.856;2023-04-06T05:58:55;14.75;;;10.85;;
67528;SDS011;54366;51.980;5.856;2023-04-06T06:01:29;16.65;;;12.18;;
67528;SDS011;54366;51.980;5.856;2023-04-06T06:04:02;16.98;;;11.38;;
67528;SDS011;54366;51.980;5.856;2023-04-06T06:06:38;12.30;;;11.00;;
67528;SDS011;54366;51.980;5.856;2023-04-06T06:09:33;14.00;;;11.25;;
67528;SDS011;54366;51.980;5.856;2023-04-06T06:12:21;15.27;;;10.93;;
67528;SDS011;54366;51.980;5.856;2023-04-06T06:14:54;11.68;;;9.40;;
67528;SDS011;54366;51.980;5.856;2023-04-06T06:17:29;12.38;;;10.73;;
67528;SDS011;54366;51.980;5.856;2023-04-06T06:19:56;13.23;;;10.65;;
67528;SDS011;54366;51.980;5.856;2023-04-06T06:22:28;12.68;;;10.55;;
67528;SDS011;54366;51.980;5.856;2023-04-06T06:25:02;15.77;;;11.45;;
67528;SDS011;54366;51.980;5.856;2023-04-06T06:27:35;13.57;;;10.32;;
67528;SDS011;54366;51.980;5.856;2023-04-06T06:30:09;14.43;;;11.10;;
67528;SDS011;54366;51.980;5.856;2023-04-06T06:32:43;13.00;;;10.40;;
67528;SDS011;54366;51.980;5.856;2023-04-06T06:35:15;19.88;;;12.75;;
67528;SDS011;54366;51.980;5.856;2023-04-06T06:37:42;16.80;;;12.32;;
67528;SDS011;54366;51.980;5.856;2023-04-06T06:40:19;16.77;;;12.85;;
67528;SDS011;54366;51.980;5.856;2023-04-06T06:42:56;15.18;;;12.18;;
67528;SDS011;54366;51.980;5.856;2023-04-06T06:45:49;17.92;;;13.48;;
67528;SDS011;54366;51.980;5.856;2023-04-06T06:48:22;14.68;;;11.52;;
67528;SDS011;54366;51.980;5.856;2023-04-06T06:50:55;17.38;;;13.20;;
67528;SDS011;54366;51.980;5.856;2023-04-06T06:53:28;15.90;;;12.90;;
67528;SDS011;54366;51.980;5.856;2023-04-06T06:55:55;14.82;;;11.40;;
67528;SDS011;54366;51.980;5.856;2023-04-06T07:01:02;15.82;;;11.60;;
67528;SDS011;54366;51.980;5.856;2023-04-06T07:03:36;14.68;;;11.52;;
67528;SDS011;54366;51.980;5.856;2023-04-06T07:06:03;16.67;;;12.60;;
67528;SDS011;54366;51.980;5.856;2023-04-06T07:08:39;16.55;;;12.63;;
67528;SDS011;54366;51.980;5.856;2023-04-06T07:11:18;14.18;;;12.32;;
67528;SDS011;54366;51.980;5.856;2023-04-06T07:13:50;13.48;;;11.00;;
67528;SDS011;54366;51.980;5.856;2023-04-06T07:16:30;15.63;;;12.98;;
67528;SDS011;54366;51.980;5.856;2023-04-06T07:18:57;16.23;;;12.77;;
67528;SDS011;54366;51.980;5.856;2023-04-06T07:21:29;14.23;;;12.07;;
67528;SDS011;54366;51.980;5.856;2023-04-06T07:24:02;13.10;;;11.10;;
67528;SDS011;54366;51.980;5.856;2023-04-06T07:26:35;15.10;;;11.43;;
67528;SDS011;54366;51.980;5.856;2023-04-06T07:29:08;15.52;;;12.13;;
67528;SDS011;54366;51.980;5.856;2023-04-06T07:31:42;16.45;;;12.77;;
67528;SDS011;54366;51.980;5.856;2023-04-06T07:34:08;18.48;;;14.02;;
67528;SDS011;54366;51.980;5.856;2023-04-06T07:36:41;15.90;;;11.93;;
67528;SDS011;54366;51.980;5.856;2023-04-06T07:39:14;19.40;;;13.18;;
67528;SDS011;54366;51.980;5.856;2023-04-06T07:41:41;20.70;;;15.60;;
67528;SDS011;54366;51.980;5.856;2023-04-06T07:44:13;17.88;;;13.95;;
67528;SDS011;54366;51.980;5.856;2023-04-06T07:46:40;18.15;;;13.13;;
67528;SDS011;54366;51.980;5.856;2023-04-06T07:49:13;19.17;;;14.35;;
67528;SDS011;54366;51.980;5.856;2023-04-06T07:51:45;20.00;;;15.90;;
67528;SDS011;54366;51.980;5.856;2023-04-06T07:54:19;16.52;;;13.07;;
67528;SDS011;54366;51.980;5.856;2023-04-06T07:56:52;16.43;;;13.43;;
67528;SDS011;54366;51.980;5.856;2023-04-06T07:59:25;14.90;;;12.40;;
67528;SDS011;54366;51.980;5.856;2023-04-06T08:01:52;16.20;;;13.50;;
67528;SDS011;54366;51.980;5.856;2023-04-06T08:04:24;17.58;;;12.93;;
67528;SDS011;54366;51.980;5.856;2023-04-06T08:06:57;16.20;;;13.50;;
67528;SDS011;54366;51.980;5.856;2023-04-06T08:09:30;18.83;;;13.38;;
67528;SDS011;54366;51.980;5.856;2023-04-06T08:12:10;14.05;;;11.35;;
67528;SDS011;54366;51.980;5.856;2023-04-06T08:14:42;13.32;;;11.05;;
67528;SDS011;54366;51.980;5.856;2023-04-06T08:17:15;18.92;;;12.85;;
67528;SDS011;54366;51.980;5.856;2023-04-06T08:19:48;14.18;;;11.95;;
67528;SDS011;54366;51.980;5.856;2023-04-06T08:22:21;14.10;;;11.18;;
67528;SDS011;54366;51.980;5.856;2023-04-06T08:24:54;17.88;;;13.90;;
67528;SDS011;54366;51.980;5.856;2023-04-06T08:27:21;19.08;;;13.93;;
67528;SDS011;54366;51.980;5.856;2023-04-06T08:29:53;15.57;;;12.77;;
67528;SDS011;54366;51.980;5.856;2023-04-06T08:32:26;14.88;;;12.25;;
67528;SDS011;54366;51.980;5.856;2023-04-06T08:34:59;17.20;;;13.32;;
67528;SDS011;54366;51.980;5.856;2023-04-06T08:37:32;16.17;;;13.45;;
67528;SDS011;54366;51.980;5.856;2023-04-06T08:40:05;18.27;;;13.52;;
67528;SDS011;54366;51.980;5.856;2023-04-06T08:42:40;15.35;;;12.35;;
67528;SDS011;54366;51.980;5.856;2023-04-06T08:45:16;17.60;;;13.95;;
67528;SDS011;54366;51.980;5.856;2023-04-06T08:47:43;20.15;;;13.77;;
67528;SDS011;54366;51.980;5.856;2023-04-06T08:50:16;15.68;;;13.65;;
67528;SDS011;54366;51.980;5.856;2023-04-06T08:52:50;19.25;;;14.50;;
67528;SDS011;54366;51.980;5.856;2023-04-06T08:55:17;17.25;;;13.95;;
67528;SDS011;54366;51.980;5.856;2023-04-06T08:57:49;15.60;;;13.60;;
67528;SDS011;54366;51.980;5.856;2023-04-06T09:00:25;19.25;;;16.10;;
67528;SDS011;54366;51.980;5.856;2023-04-06T09:02:59;17.60;;;14.23;;
67528;SDS011;54366;51.980;5.856;2023-04-06T09:05:32;18.08;;;14.27;;
67528;SDS011;54366;51.980;5.856;2023-04-06T09:08:05;18.08;;;14.27;;
67528;SDS011;54366;51.980;5.856;2023-04-06T09:10:32;16.77;;;13.55;;
67528;SDS011;54366;51.980;5.856;2023-04-06T09:13:06;16.03;;;13.30;;
67528;SDS011;54366;51.980;5.856;2023-04-06T09:15:57;16.10;;;13.90;;
67528;SDS011;54366;51.980;5.856;2023-04-06T09:18:32;18.48;;;14.93;;
67528;SDS011;54366;51.980;5.856;2023-04-06T09:21:06;19.10;;;15.32;;
67528;SDS011;54366;51.980;5.856;2023-04-06T09:23:39;15.80;;;14.05;;
67528;SDS011;54366;51.980;5.856;2023-04-06T09:26:16;17.85;;;14.23;;
67528;SDS011;54366;51.980;5.856;2023-04-06T09:28:50;17.38;;;15.25;;
67528;SDS011;54366;51.980;5.856;2023-04-06T09:31:22;20.52;;;16.50;;
67528;SDS011;54366;51.980;5.856;2023-04-06T09:33:56;19.40;;;15.48;;
67528;SDS011;54366;51.980;5.856;2023-04-06T09:36:30;19.75;;;16.40;;
67528;SDS011;54366;51.980;5.856;2023-04-06T09:39:22;19.67;;;16.08;;
67528;SDS011;54366;51.980;5.856;2023-04-06T09:41:57;16.70;;;14.90;;
67528;SDS011;54366;51.980;5.856;2023-04-06T09:44:37;20.33;;;16.35;;
67528;SDS011;54366;51.980;5.856;2023-04-06T09:47:10;18.23;;;16.20;;
67528;SDS011;54366;51.980;5.856;2023-04-06T09:49:43;21.20;;;16.48;;
67528;SDS011;54366;51.980;5.856;2023-04-06T09:52:18;21.65;;;17.45;;
67528;SDS011;54366;51.980;5.856;2023-04-06T09:54:46;17.33;;;15.18;;
67528;SDS011;54366;51.980;5.856;2023-04-06T09:57:27;19.27;;;16.20;;
67528;SDS011;54366;51.980;5.856;2023-04-06T10:00:04;22.80;;;17.38;;
67528;SDS011;54366;51.980;5.856;2023-04-06T10:02:53;22.15;;;16.63;;
67528;SDS011;54366;51.980;5.856;2023-04-06T10:05:52;20.60;;;16.65;;
67528;SDS011;54366;51.980;5.856;2023-04-06T10:08:33;21.00;;;16.42;;
67528;SDS011;54366;51.980;5.856;2023-04-06T10:11:15;19.42;;;15.73;;
67528;SDS011;54366;51.980;5.856;2023-04-06T10:13:55;23.10;;;17.02;;
67528;SDS011;54366;51.980;5.856;2023-04-06T10:16:22;19.45;;;16.67;;
67528;SDS011;54366;51.980;5.856;2023-04-06T10:18:58;18.50;;;15.73;;
67528;SDS011;54366;51.980;5.856;2023-04-06T10:21:37;18.23;;;15.43;;
67528;SDS011;54366;51.980;5.856;2023-04-06T10:24:12;19.05;;;15.82;;
67528;SDS011;54366;51.980;5.856;2023-04-06T10:27:01;18.70;;;14.75;;
67528;SDS011;54366;51.980;5.856;2023-04-06T10:29:42;19.85;;;16.15;;
67528;SDS011;54366;51.980;5.856;2023-04-06T10:32:18;18.77;;;15.70;;
67528;SDS011;54366;51.980;5.856;2023-04-06T10:34:51;17.17;;;14.02;;
67528;SDS011;54366;51.980;5.856;2023-04-06T10:37:24;16.23;;;14.07;;
67528;SDS011;54366;51.980;5.856;2023-04-06T10:39:53;15.73;;;13.52;;
67528;SDS011;54366;51.980;5.856;2023-04-06T10:42:36;18.40;;;14.45;;
67528;SDS011;54366;51.980;5.856;2023-04-06T10:45:20;18.50;;;15.32;;
67528;SDS011;54366;51.980;5.856;2023-04-06T10:47:54;15.90;;;13.40;;
67528;SDS011;54366;51.980;5.856;2023-04-06T10:50:21;17.50;;;13.63;;
67528;SDS011;54366;51.980;5.856;2023-04-06T10:52:59;16.10;;;13.65;;
67528;SDS011;54366;51.980;5.856;2023-04-06T10:55:33;17.73;;;13.77;;
67528;SDS011;54366;51.980;5.856;2023-04-06T10:58:07;16.05;;;13.23;;
67528;SDS011;54366;51.980;5.856;2023-04-06T11:00:47;18.30;;;14.00;;
67528;SDS011;54366;51.980;5.856;2023-04-06T11:03:21;16.10;;;13.60;;
67528;SDS011;54366;51.980;5.856;2023-04-06T11:05:55;14.50;;;12.95;;
67528;SDS011;54366;51.980;5.856;2023-04-06T11:08:32;15.20;;;13.35;;
67528;SDS011;54366;51.980;5.856;2023-04-06T11:11:06;14.88;;;13.27;;
67528;SDS011;54366;51.980;5.856;2023-04-06T11:13:57;14.27;;;12.77;;
67528;SDS011;54366;51.980;5.856;2023-04-06T11:16:32;15.00;;;13.32;;
67528;SDS011;54366;51.980;5.856;2023-04-06T11:19:02;15.10;;;13.38;;
67528;SDS011;54366;51.980;5.856;2023-04-06T11:21:47;14.93;;;13.32;;
67528;SDS011;54366;51.980;5.856;2023-04-06T11:24:23;13.43;;;12.00;;
67528;SDS011;54366;51.980;5.856;2023-04-06T11:26:57;17.05;;;13.70;;
67528;SDS011;54366;51.980;5.856;2023-04-06T11:29:30;13.80;;;11.48;;
67528;SDS011;54366;51.980;5.856;2023-04-06T11:32:05;11.93;;;10.27;;
67528;SDS011;54366;51.980;5.856;2023-04-06T11:34:35;10.50;;;9.43;;
67528;SDS011;54366;51.980;5.856;2023-04-06T11:37:09;13.23;;;11.82;;
67528;SDS011;54366;51.980;5.856;2023-04-06T11:39:47;12.38;;;11.18;;
67528;SDS011;54366;51.980;5.856;2023-04-06T11:42:22;12.35;;;11.05;;
67528;SDS011;54366;51.980;5.856;2023-04-06T11:44:56;12.63;;;11.30;;
67528;SDS011;54366;51.980;5.856;2023-04-06T11:47:32;12.77;;;11.10;;
67528;SDS011;54366;51.980;5.856;2023-04-06T11:50:14;11.82;;;10.63;;
67528;SDS011;54366;51.980;5.856;2023-04-06T11:52:47;12.50;;;10.68;;
67528;SDS011;54366;51.980;5.856;2023-04-06T11:55:36;10.95;;;9.25;;
67528;SDS011;54366;51.980;5.856;2023-04-06T11:58:10;10.93;;;9.57;;
67528;SDS011;54366;51.980;5.856;2023-04-06T12:00:43;11.63;;;9.68;;
67528;SDS011;54366;51.980;5.856;2023-04-06T12:03:13;10.38;;;9.10;;
67528;SDS011;54366;51.980;5.856;2023-04-06T12:05:45;10.95;;;9.35;;
67528;SDS011;54366;51.980;5.856;2023-04-06T12:08:18;9.93;;;7.82;;
67528;SDS011;54366;51.980;5.856;2023-04-06T12:10:45;9.43;;;8.43;;
67528;SDS011;54366;51.980;5.856;2023-04-06T12:13:17;10.75;;;9.30;;
67528;SDS011;54366;51.980;5.856;2023-04-06T12:15:57;9.95;;;8.63;;
67528;SDS011;54366;51.980;5.856;2023-04-06T12:18:31;9.27;;;8.27;;
67528;SDS011;54366;51.980;5.856;2023-04-06T12:20:58;7.97;;;7.18;;
67528;SDS011;54366;51.980;5.856;2023-04-06T12:23:30;10.07;;;8.65;;
67528;SDS011;54366;51.980;5.856;2023-04-06T12:26:03;10.02;;;8.43;;
67528;SDS011;54366;51.980;5.856;2023-04-06T12:28:36;8.88;;;7.97;;
67528;SDS011;54366;51.980;5.856;2023-04-06T12:31:19;8.80;;;7.22;;
67528;SDS011;54366;51.980;5.856;2023-04-06T12:33:53;7.90;;;6.57;;
67528;SDS011;54366;51.980;5.856;2023-04-06T12:36:26;8.00;;;6.38;;
67528;SDS011;54366;51.980;5.856;2023-04-06T12:38:53;7.75;;;6.68;;
67528;SDS011;54366;51.980;5.856;2023-04-06T12:41:25;7.75;;;6.28;;
67528;SDS011;54366;51.980;5.856;2023-04-06T12:43:53;7.47;;;5.97;;
67528;SDS011;54366;51.980;5.856;2023-04-06T12:46:25;8.25;;;6.43;;
67528;SDS011;54366;51.980;5.856;2023-04-06T12:48:59;7.07;;;6.13;;
67528;SDS011;54366;51.980;5.856;2023-04-06T12:51:29;8.18;;;5.93;;
67528;SDS011;54366;51.980;5.856;2023-04-06T12:54:03;5.97;;;5.38;;
67528;SDS011;54366;51.980;5.856;2023-04-06T12:56:36;6.50;;;5.30;;
67528;SDS011;54366;51.980;5.856;2023-04-06T12:59:09;7.90;;;5.93;;
67528;SDS011;54366;51.980;5.856;2023-04-06T13:01:42;6.80;;;5.95;;
67528;SDS011;54366;51.980;5.856;2023-04-06T13:04:16;6.60;;;5.35;;
67528;SDS011;54366;51.980;5.856;2023-04-06T13:06:49;6.55;;;4.90;;
67528;SDS011;54366;51.980;5.856;2023-04-06T13:09:22;6.57;;;5.55;;
67528;SDS011;54366;51.980;5.856;2023-04-06T13:11:49;5.75;;;4.82;;
67528;SDS011;54366;51.980;5.856;2023-04-06T13:14:21;5.95;;;5.28;;
67528;SDS011;54366;51.980;5.856;2023-04-06T13:16:54;7.70;;;5.82;;
67528;SDS011;54366;51.980;5.856;2023-04-06T13:19:27;7.10;;;5.50;;
67528;SDS011;54366;51.980;5.856;2023-04-06T13:22:00;6.80;;;5.50;;
67528;SDS011;54366;51.980;5.856;2023-04-06T13:24:33;6.32;;;5.60;;
67528;SDS011;54366;51.980;5.856;2023-04-06T13:27:06;7.80;;;6.32;;
67528;SDS011;54366;51.980;5.856;2023-04-06T13:29:33;6.22;;;5.45;;
67528;SDS011;54366;51.980;5.856;2023-04-06T13:32:06;7.00;;;5.65;;
67528;SDS011;54366;51.980;5.856;2023-04-06T13:34:41;7.10;;;6.25;;
67528;SDS011;54366;51.980;5.856;2023-04-06T13:37:13;9.60;;;7.22;;
67528;SDS011;54366;51.980;5.856;2023-04-06T13:39:46;6.78;;;5.63;;
67528;SDS011;54366;51.980;5.856;2023-04-06T13:42:13;8.23;;;6.50;;
67528;SDS011;54366;51.980;5.856;2023-04-06T13:44:45;8.50;;;7.25;;
67528;SDS011;54366;51.980;5.856;2023-04-06T13:47:12;9.93;;;7.65;;
67528;SDS011;54366;51.980;5.856;2023-04-06T13:49:46;9.02;;;7.03;;
67528;SDS011;54366;51.980;5.856;2023-04-06T13:52:18;8.40;;;6.93;;
67528;SDS011;54366;51.980;5.856;2023-04-06T13:54:46;8.38;;;7.47;;
67528;SDS011;54366;51.980;5.856;2023-04-06T13:57:18;9.23;;;7.47;;
67528;SDS011;54366;51.980;5.856;2023-04-06T13:59:51;10.38;;;8.50;;
67528;SDS011;54366;51.980;5.856;2023-04-06T14:02:24;8.52;;;7.63;;
67528;SDS011;54366;51.980;5.856;2023-04-06T14:04:58;12.82;;;8.30;;
67528;SDS011;54366;51.980;5.856;2023-04-06T14:07:31;9.27;;;7.53;;
67528;SDS011;54366;51.980;5.856;2023-04-06T14:10:05;9.95;;;8.38;;
67528;SDS011;54366;51.980;5.856;2023-04-06T14:12:52;10.20;;;8.25;;
67528;SDS011;54366;51.980;5.856;2023-04-06T14:15:24;12.10;;;9.10;;
67528;SDS011;54366;51.980;5.856;2023-04-06T14:17:51;11.38;;;9.45;;
67528;SDS011;54366;51.980;5.856;2023-04-06T14:20:24;11.90;;;9.75;;
67528;SDS011;54366;51.980;5.856;2023-04-06T14:22:51;10.63;;;9.15;;
67528;SDS011;54366;51.980;5.856;2023-04-06T14:25:24;10.23;;;8.57;;
67528;SDS011;54366;51.980;5.856;2023-04-06T14:27:57;11.05;;;9.25;;
67528;SDS011;54366;51.980;5.856;2023-04-06T14:30:30;11.13;;;9.57;;
67528;SDS011;54366;51.980;5.856;2023-04-06T14:32:58;11.23;;;9.25;;
67528;SDS011;54366;51.980;5.856;2023-04-06T14:35:30;12.60;;;9.18;;
67528;SDS011;54366;51.980;5.856;2023-04-06T14:38:04;10.90;;;9.20;;
67528;SDS011;54366;51.980;5.856;2023-04-06T14:40:37;9.50;;;8.50;;
67528;SDS011;54366;51.980;5.856;2023-04-06T14:43:10;11.60;;;9.77;;
67528;SDS011;54366;51.980;5.856;2023-04-06T14:45:37;11.13;;;8.80;;
67528;SDS011;54366;51.980;5.856;2023-04-06T14:48:11;11.35;;;9.13;;
67528;SDS011;54366;51.980;5.856;2023-04-06T14:50:54;9.82;;;8.77;;
67528;SDS011;54366;51.980;5.856;2023-04-06T14:53:27;10.40;;;8.70;;
67528;SDS011;54366;51.980;5.856;2023-04-06T14:56:00;11.38;;;8.77;;
67528;SDS011;54366;51.980;5.856;2023-04-06T14:58:33;11.30;;;9.20;;
67528;SDS011;54366;51.980;5.856;2023-04-06T15:01:06;12.80;;;9.80;;
67528;SDS011;54366;51.980;5.856;2023-04-06T15:03:40;10.52;;;8.73;;
67528;SDS011;54366;51.980;5.856;2023-04-06T15:06:11;10.65;;;9.10;;
67528;SDS011;54366;51.980;5.856;2023-04-06T15:08:48;10.00;;;8.82;;
67528;SDS011;54366;51.980;5.856;2023-04-06T15:11:21;10.00;;;8.73;;
67528;SDS011;54366;51.980;5.856;2023-04-06T15:14:08;11.80;;;9.70;;
67528;SDS011;54366;51.980;5.856;2023-04-06T15:16:40;10.77;;;9.60;;
67528;SDS011;54366;51.980;5.856;2023-04-06T15:19:13;9.68;;;8.40;;
67528;SDS011;54366;51.980;5.856;2023-04-06T15:21:46;9.60;;;7.97;;
67528;SDS011;54366;51.980;5.856;2023-04-06T15:24:13;9.13;;;8.13;;
67528;SDS011;54366;51.980;5.856;2023-04-06T15:26:45;8.95;;;7.68;;
67528;SDS011;54366;51.980;5.856;2023-04-06T15:29:18;9.18;;;7.60;;
67528;SDS011;54366;51.980;5.856;2023-04-06T15:31:51;8.15;;;6.72;;
67528;SDS011;54366;51.980;5.856;2023-04-06T15:34:18;8.05;;;7.25;;